Eagle, Idaho
Current Conditions -  °F | °C
As of 6:53 PM on Wednesday 22 Oct 2014 (Local Time) from KBOI Reporting Station
Overcast Overcast  
Wind Chill: 60°   Ceiling: 10000
Heat Index: 60°   Visibility: 10mi
Dew Point: 32°   Wind: 10mph
Humidity: 35%   Direction: 130°SE
Pressure: 30.01"   Gusts: NA
Location:  43.7°N, 116.35°W
Report Text: KBOI 230053Z 13009KT 10SM OVC100 16/00 A3001 RMK AO2 SLP157 T01560000
Loading
Personal Weather Stations






























Interactive Weather Map
Tropical Storm Tracking
New forecast layout! Learn more

10-Day Weather Forecast

Advertisements
Track Severe Weather on mobile